sensor_id;sensor_type;location;lat;lon;timestamp;P1;durP1;ratioP1;P2;durP2;ratioP2
83094;SDS011;72967;43.674;6.976;2023-10-09T00:00:24;7.40;;;3.13;;
83094;SDS011;72967;43.674;6.976;2023-10-09T00:03:05;8.20;;;3.33;;
83094;SDS011;72967;43.674;6.976;2023-10-09T00:05:31;8.88;;;3.83;;
83094;SDS011;72967;43.674;6.976;2023-10-09T00:08:09;11.23;;;3.92;;
83094;SDS011;72967;43.674;6.976;2023-10-09T00:10:41;12.48;;;3.67;;
83094;SDS011;72967;43.674;6.976;2023-10-09T00:13:20;7.90;;;3.20;;
83094;SDS011;72967;43.674;6.976;2023-10-09T00:15:54;8.20;;;3.17;;
83094;SDS011;72967;43.674;6.976;2023-10-09T00:18:25;8.13;;;3.10;;
83094;SDS011;72967;43.674;6.976;2023-10-09T00:20:55;8.95;;;3.35;;
83094;SDS011;72967;43.674;6.976;2023-10-09T00:23:36;6.95;;;2.72;;
83094;SDS011;72967;43.674;6.976;2023-10-09T00:26:02;9.48;;;3.20;;
83094;SDS011;72967;43.674;6.976;2023-10-09T00:28:57;6.13;;;2.95;;
83094;SDS011;72967;43.674;6.976;2023-10-09T00:31:22;7.35;;;3.47;;
83094;SDS011;72967;43.674;6.976;2023-10-09T00:33:59;7.68;;;2.92;;
83094;SDS011;72967;43.674;6.976;2023-10-09T00:36:33;8.88;;;3.03;;
83094;SDS011;72967;43.674;6.976;2023-10-09T00:39:06;7.95;;;3.17;;
83094;SDS011;72967;43.674;6.976;2023-10-09T00:41:52;5.25;;;2.75;;
83094;SDS011;72967;43.674;6.976;2023-10-09T00:44:19;7.05;;;2.90;;
83094;SDS011;72967;43.674;6.976;2023-10-09T00:46:44;6.40;;;3.25;;
83094;SDS011;72967;43.674;6.976;2023-10-09T00:49:12;7.10;;;3.15;;
83094;SDS011;72967;43.674;6.976;2023-10-09T00:51:42;7.38;;;2.92;;
83094;SDS011;72967;43.674;6.976;2023-10-09T00:54:21;6.80;;;2.95;;
83094;SDS011;72967;43.674;6.976;2023-10-09T00:56:51;6.60;;;3.25;;
83094;SDS011;72967;43.674;6.976;2023-10-09T00:59:23;7.20;;;2.80;;
83094;SDS011;72967;43.674;6.976;2023-10-09T01:01:50;8.45;;;3.03;;
83094;SDS011;72967;43.674;6.976;2023-10-09T01:04:29;9.05;;;3.42;;
83094;SDS011;72967;43.674;6.976;2023-10-09T01:07:02;8.65;;;3.22;;
83094;SDS011;72967;43.674;6.976;2023-10-09T01:09:39;5.72;;;3.08;;
83094;SDS011;72967;43.674;6.976;2023-10-09T01:14:42;10.40;;;3.15;;
83094;SDS011;72967;43.674;6.976;2023-10-09T01:17:08;7.93;;;3.10;;
83094;SDS011;72967;43.674;6.976;2023-10-09T01:19:34;7.75;;;3.22;;
83094;SDS011;72967;43.674;6.976;2023-10-09T01:22:00;7.45;;;2.90;;
83094;SDS011;72967;43.674;6.976;2023-10-09T01:24:37;9.38;;;2.75;;
83094;SDS011;72967;43.674;6.976;2023-10-09T01:27:04;8.77;;;3.50;;
83094;SDS011;72967;43.674;6.976;2023-10-09T01:29:36;11.32;;;3.15;;
83094;SDS011;72967;43.674;6.976;2023-10-09T01:32:01;8.70;;;2.80;;
83094;SDS011;72967;43.674;6.976;2023-10-09T01:34:28;8.82;;;2.65;;
83094;SDS011;72967;43.674;6.976;2023-10-09T01:37:06;8.02;;;2.90;;
83094;SDS011;72967;43.674;6.976;2023-10-09T01:39:54;9.80;;;3.35;;
83094;SDS011;72967;43.674;6.976;2023-10-09T01:42:44;5.90;;;2.42;;
83094;SDS011;72967;43.674;6.976;2023-10-09T01:45:12;8.93;;;3.55;;
83094;SDS011;72967;43.674;6.976;2023-10-09T01:47:40;8.95;;;2.92;;
83094;SDS011;72967;43.674;6.976;2023-10-09T01:50:11;9.80;;;3.33;;
83094;SDS011;72967;43.674;6.976;2023-10-09T01:52:44;10.65;;;3.38;;
83094;SDS011;72967;43.674;6.976;2023-10-09T01:55:10;10.45;;;3.20;;
83094;SDS011;72967;43.674;6.976;2023-10-09T01:57:58;9.90;;;3.28;;
83094;SDS011;72967;43.674;6.976;2023-10-09T02:00:47;13.68;;;3.08;;
83094;SDS011;72967;43.674;6.976;2023-10-09T02:03:20;9.35;;;2.95;;
83094;SDS011;72967;43.674;6.976;2023-10-09T02:05:52;11.02;;;3.60;;
83094;SDS011;72967;43.674;6.976;2023-10-09T02:08:28;7.40;;;2.63;;
83094;SDS011;72967;43.674;6.976;2023-10-09T02:10:55;8.57;;;3.47;;
83094;SDS011;72967;43.674;6.976;2023-10-09T02:13:21;8.90;;;3.05;;
83094;SDS011;72967;43.674;6.976;2023-10-09T02:15:55;8.60;;;2.92;;
83094;SDS011;72967;43.674;6.976;2023-10-09T02:18:37;10.27;;;3.00;;
83094;SDS011;72967;43.674;6.976;2023-10-09T02:21:19;8.73;;;2.90;;
83094;SDS011;72967;43.674;6.976;2023-10-09T02:23:58;7.57;;;3.20;;
83094;SDS011;72967;43.674;6.976;2023-10-09T02:28:58;11.32;;;3.38;;
83094;SDS011;72967;43.674;6.976;2023-10-09T02:31:39;6.32;;;3.17;;
83094;SDS011;72967;43.674;6.976;2023-10-09T02:34:06;7.63;;;2.92;;
83094;SDS011;72967;43.674;6.976;2023-10-09T02:36:33;7.10;;;3.20;;
83094;SDS011;72967;43.674;6.976;2023-10-09T02:39:14;7.60;;;3.33;;
83094;SDS011;72967;43.674;6.976;2023-10-09T02:41:54;8.35;;;3.00;;
83094;SDS011;72967;43.674;6.976;2023-10-09T02:44:32;8.45;;;3.35;;
83094;SDS011;72967;43.674;6.976;2023-10-09T02:47:04;8.77;;;3.75;;
83094;SDS011;72967;43.674;6.976;2023-10-09T02:49:37;7.47;;;2.88;;
83094;SDS011;72967;43.674;6.976;2023-10-09T02:52:04;8.18;;;3.00;;
83094;SDS011;72967;43.674;6.976;2023-10-09T02:54:32;8.25;;;3.20;;
83094;SDS011;72967;43.674;6.976;2023-10-09T02:57:00;7.07;;;2.95;;
83094;SDS011;72967;43.674;6.976;2023-10-09T02:59:33;9.00;;;2.92;;
83094;SDS011;72967;43.674;6.976;2023-10-09T03:01:59;8.20;;;3.22;;
83094;SDS011;72967;43.674;6.976;2023-10-09T03:04:28;9.32;;;3.22;;
83094;SDS011;72967;43.674;6.976;2023-10-09T03:06:54;10.25;;;3.10;;
83094;SDS011;72967;43.674;6.976;2023-10-09T03:09:22;6.97;;;3.22;;
83094;SDS011;72967;43.674;6.976;2023-10-09T03:11:55;6.95;;;2.88;;
83094;SDS011;72967;43.674;6.976;2023-10-09T03:14:35;8.45;;;2.90;;
83094;SDS011;72967;43.674;6.976;2023-10-09T03:17:06;6.88;;;2.80;;
83094;SDS011;72967;43.674;6.976;2023-10-09T03:19:36;10.10;;;3.28;;
83094;SDS011;72967;43.674;6.976;2023-10-09T03:22:08;10.82;;;3.22;;
83094;SDS011;72967;43.674;6.976;2023-10-09T03:24:35;6.70;;;2.83;;
83094;SDS011;72967;43.674;6.976;2023-10-09T03:27:01;8.68;;;2.72;;
83094;SDS011;72967;43.674;6.976;2023-10-09T03:29:27;10.63;;;3.00;;
83094;SDS011;72967;43.674;6.976;2023-10-09T03:31:53;9.93;;;2.65;;
83094;SDS011;72967;43.674;6.976;2023-10-09T03:34:20;7.15;;;3.08;;
83094;SDS011;72967;43.674;6.976;2023-10-09T03:36:46;9.40;;;3.75;;
83094;SDS011;72967;43.674;6.976;2023-10-09T03:39:13;9.98;;;3.05;;
83094;SDS011;72967;43.674;6.976;2023-10-09T03:41:57;9.27;;;3.30;;
83094;SDS011;72967;43.674;6.976;2023-10-09T03:44:29;9.52;;;3.25;;
83094;SDS011;72967;43.674;6.976;2023-10-09T03:46:58;8.30;;;3.30;;
83094;SDS011;72967;43.674;6.976;2023-10-09T03:49:24;8.65;;;3.45;;
83094;SDS011;72967;43.674;6.976;2023-10-09T03:51:50;7.75;;;3.38;;
83094;SDS011;72967;43.674;6.976;2023-10-09T03:54:17;10.85;;;3.45;;
83094;SDS011;72967;43.674;6.976;2023-10-09T03:56:46;7.53;;;3.38;;
83094;SDS011;72967;43.674;6.976;2023-10-09T03:59:15;8.75;;;3.85;;
83094;SDS011;72967;43.674;6.976;2023-10-09T04:01:41;8.30;;;3.22;;
83094;SDS011;72967;43.674;6.976;2023-10-09T04:04:09;10.90;;;2.70;;
83094;SDS011;72967;43.674;6.976;2023-10-09T04:09:05;7.03;;;2.58;;
83094;SDS011;72967;43.674;6.976;2023-10-09T04:11:49;9.25;;;2.63;;
83094;SDS011;72967;43.674;6.976;2023-10-09T04:14:34;9.63;;;3.00;;
83094;SDS011;72967;43.674;6.976;2023-10-09T04:17:00;9.63;;;2.70;;
83094;SDS011;72967;43.674;6.976;2023-10-09T04:19:31;7.53;;;2.63;;
83094;SDS011;72967;43.674;6.976;2023-10-09T04:22:07;5.07;;;2.67;;
83094;SDS011;72967;43.674;6.976;2023-10-09T04:24:34;8.40;;;3.10;;
83094;SDS011;72967;43.674;6.976;2023-10-09T04:27:09;7.15;;;2.97;;
83094;SDS011;72967;43.674;6.976;2023-10-09T04:29:34;9.23;;;2.80;;
83094;SDS011;72967;43.674;6.976;2023-10-09T04:32:04;7.50;;;2.83;;
83094;SDS011;72967;43.674;6.976;2023-10-09T04:34:33;5.72;;;3.17;;
83094;SDS011;72967;43.674;6.976;2023-10-09T04:37:03;6.32;;;2.90;;
83094;SDS011;72967;43.674;6.976;2023-10-09T04:39:47;8.90;;;3.22;;
83094;SDS011;72967;43.674;6.976;2023-10-09T04:42:14;6.85;;;2.63;;
83094;SDS011;72967;43.674;6.976;2023-10-09T04:44:49;9.02;;;3.25;;
83094;SDS011;72967;43.674;6.976;2023-10-09T04:47:30;6.53;;;4.15;;
83094;SDS011;72967;43.674;6.976;2023-10-09T04:50:08;8.57;;;3.30;;
83094;SDS011;72967;43.674;6.976;2023-10-09T04:53:00;9.00;;;3.25;;
83094;SDS011;72967;43.674;6.976;2023-10-09T04:55:44;5.68;;;2.80;;
83094;SDS011;72967;43.674;6.976;2023-10-09T04:58:22;11.43;;;3.33;;
83094;SDS011;72967;43.674;6.976;2023-10-09T05:00:50;9.82;;;3.33;;
83094;SDS011;72967;43.674;6.976;2023-10-09T05:03:24;10.93;;;3.72;;
83094;SDS011;72967;43.674;6.976;2023-10-09T05:05:53;9.68;;;3.60;;
83094;SDS011;72967;43.674;6.976;2023-10-09T05:08:27;6.82;;;3.35;;
83094;SDS011;72967;43.674;6.976;2023-10-09T05:10:53;7.60;;;3.10;;
83094;SDS011;72967;43.674;6.976;2023-10-09T05:13:44;5.60;;;2.80;;
83094;SDS011;72967;43.674;6.976;2023-10-09T05:16:16;10.15;;;3.33;;
83094;SDS011;72967;43.674;6.976;2023-10-09T05:18:46;5.80;;;2.67;;
83094;SDS011;72967;43.674;6.976;2023-10-09T05:21:31;9.07;;;3.33;;
83094;SDS011;72967;43.674;6.976;2023-10-09T05:23:58;12.70;;;4.35;;
83094;SDS011;72967;43.674;6.976;2023-10-09T05:26:37;9.43;;;3.38;;
83094;SDS011;72967;43.674;6.976;2023-10-09T05:29:21;11.18;;;3.70;;
83094;SDS011;72967;43.674;6.976;2023-10-09T05:32:03;8.07;;;3.30;;
83094;SDS011;72967;43.674;6.976;2023-10-09T05:34:38;7.85;;;3.55;;
83094;SDS011;72967;43.674;6.976;2023-10-09T05:37:23;8.38;;;3.20;;
83094;SDS011;72967;43.674;6.976;2023-10-09T05:39:59;13.77;;;5.78;;
83094;SDS011;72967;43.674;6.976;2023-10-09T05:42:41;7.07;;;3.20;;
83094;SDS011;72967;43.674;6.976;2023-10-09T05:45:07;7.10;;;2.90;;
83094;SDS011;72967;43.674;6.976;2023-10-09T05:47:45;9.63;;;3.95;;
83094;SDS011;72967;43.674;6.976;2023-10-09T05:52:58;7.07;;;3.20;;
83094;SDS011;72967;43.674;6.976;2023-10-09T05:55:27;8.68;;;3.22;;
83094;SDS011;72967;43.674;6.976;2023-10-09T05:58:12;8.13;;;4.25;;
83094;SDS011;72967;43.674;6.976;2023-10-09T06:00:44;7.68;;;3.80;;
83094;SDS011;72967;43.674;6.976;2023-10-09T06:03:28;5.40;;;3.42;;
83094;SDS011;72967;43.674;6.976;2023-10-09T06:06:14;11.00;;;3.40;;
83094;SDS011;72967;43.674;6.976;2023-10-09T06:09:02;9.63;;;4.68;;
83094;SDS011;72967;43.674;6.976;2023-10-09T06:11:40;7.93;;;3.70;;
83094;SDS011;72967;43.674;6.976;2023-10-09T06:14:07;7.70;;;3.33;;
83094;SDS011;72967;43.674;6.976;2023-10-09T06:16:33;8.82;;;3.72;;
83094;SDS011;72967;43.674;6.976;2023-10-09T06:19:20;8.45;;;4.00;;
83094;SDS011;72967;43.674;6.976;2023-10-09T06:21:56;7.32;;;3.70;;
83094;SDS011;72967;43.674;6.976;2023-10-09T06:24:40;14.70;;;5.15;;
83094;SDS011;72967;43.674;6.976;2023-10-09T06:27:07;14.50;;;4.32;;
83094;SDS011;72967;43.674;6.976;2023-10-09T06:29:36;11.30;;;4.40;;
83094;SDS011;72967;43.674;6.976;2023-10-09T06:32:04;8.40;;;4.03;;
83094;SDS011;72967;43.674;6.976;2023-10-09T06:34:42;11.65;;;3.33;;
83094;SDS011;72967;43.674;6.976;2023-10-09T06:37:21;11.75;;;3.55;;
83094;SDS011;72967;43.674;6.976;2023-10-09T06:39:50;11.85;;;3.85;;
83094;SDS011;72967;43.674;6.976;2023-10-09T06:42:15;6.63;;;3.75;;
83094;SDS011;72967;43.674;6.976;2023-10-09T06:45:12;7.32;;;3.50;;
83094;SDS011;72967;43.674;6.976;2023-10-09T06:47:49;8.23;;;4.00;;
83094;SDS011;72967;43.674;6.976;2023-10-09T06:50:21;8.43;;;3.85;;
83094;SDS011;72967;43.674;6.976;2023-10-09T06:52:53;12.82;;;4.32;;
83094;SDS011;72967;43.674;6.976;2023-10-09T06:55:26;9.00;;;3.55;;
83094;SDS011;72967;43.674;6.976;2023-10-09T06:58:01;8.35;;;4.40;;
83094;SDS011;72967;43.674;6.976;2023-10-09T07:00:38;10.10;;;4.32;;
83094;SDS011;72967;43.674;6.976;2023-10-09T07:03:33;9.25;;;4.53;;
83094;SDS011;72967;43.674;6.976;2023-10-09T07:08:34;9.55;;;4.10;;
83094;SDS011;72967;43.674;6.976;2023-10-09T07:11:06;6.72;;;3.72;;
83094;SDS011;72967;43.674;6.976;2023-10-09T07:14:07;8.45;;;4.55;;
83094;SDS011;72967;43.674;6.976;2023-10-09T07:16:33;9.55;;;4.30;;
83094;SDS011;72967;43.674;6.976;2023-10-09T07:19:04;8.15;;;4.22;;
83094;SDS011;72967;43.674;6.976;2023-10-09T07:21:50;5.32;;;3.97;;
83094;SDS011;72967;43.674;6.976;2023-10-09T07:24:19;9.48;;;4.80;;
83094;SDS011;72967;43.674;6.976;2023-10-09T07:26:50;8.15;;;4.43;;
83094;SDS011;72967;43.674;6.976;2023-10-09T07:29:18;6.60;;;3.78;;
83094;SDS011;72967;43.674;6.976;2023-10-09T07:31:48;7.65;;;4.15;;
83094;SDS011;72967;43.674;6.976;2023-10-09T07:34:22;8.32;;;4.15;;
83094;SDS011;72967;43.674;6.976;2023-10-09T07:37:14;7.80;;;4.13;;
83094;SDS011;72967;43.674;6.976;2023-10-09T07:39:44;6.55;;;3.88;;
83094;SDS011;72967;43.674;6.976;2023-10-09T07:42:15;11.70;;;4.00;;
83094;SDS011;72967;43.674;6.976;2023-10-09T07:44:44;7.63;;;4.30;;
83094;SDS011;72967;43.674;6.976;2023-10-09T07:47:18;11.80;;;4.20;;
83094;SDS011;72967;43.674;6.976;2023-10-09T07:50:11;9.50;;;4.43;;
83094;SDS011;72967;43.674;6.976;2023-10-09T07:52:36;6.95;;;3.92;;
83094;SDS011;72967;43.674;6.976;2023-10-09T07:55:08;9.95;;;5.45;;
83094;SDS011;72967;43.674;6.976;2023-10-09T07:57:51;6.68;;;3.90;;
83094;SDS011;72967;43.674;6.976;2023-10-09T08:00:17;6.03;;;4.40;;
83094;SDS011;72967;43.674;6.976;2023-10-09T08:03:01;9.25;;;4.43;;
83094;SDS011;72967;43.674;6.976;2023-10-09T08:05:47;5.20;;;4.00;;
83094;SDS011;72967;43.674;6.976;2023-10-09T08:08:12;10.35;;;4.80;;
83094;SDS011;72967;43.674;6.976;2023-10-09T08:11:03;10.77;;;4.97;;
83094;SDS011;72967;43.674;6.976;2023-10-09T08:13:55;8.43;;;3.55;;
83094;SDS011;72967;43.674;6.976;2023-10-09T08:16:27;7.65;;;4.40;;
83094;SDS011;72967;43.674;6.976;2023-10-09T08:19:04;8.65;;;4.88;;
83094;SDS011;72967;43.674;6.976;2023-10-09T08:21:48;8.90;;;4.65;;
83094;SDS011;72967;43.674;6.976;2023-10-09T08:24:32;6.40;;;3.85;;
83094;SDS011;72967;43.674;6.976;2023-10-09T08:27:06;9.23;;;4.43;;
83094;SDS011;72967;43.674;6.976;2023-10-09T08:29:50;8.55;;;4.53;;
83094;SDS011;72967;43.674;6.976;2023-10-09T08:32:36;8.15;;;4.70;;
83094;SDS011;72967;43.674;6.976;2023-10-09T08:35:06;10.50;;;4.65;;
83094;SDS011;72967;43.674;6.976;2023-10-09T08:37:50;9.35;;;5.28;;
83094;SDS011;72967;43.674;6.976;2023-10-09T08:40:16;8.40;;;4.35;;
83094;SDS011;72967;43.674;6.976;2023-10-09T08:45:19;9.70;;;4.50;;
83094;SDS011;72967;43.674;6.976;2023-10-09T08:47:53;10.70;;;4.80;;
83094;SDS011;72967;43.674;6.976;2023-10-09T08:50:21;10.75;;;4.18;;
83094;SDS011;72967;43.674;6.976;2023-10-09T08:52:48;10.07;;;5.22;;
83094;SDS011;72967;43.674;6.976;2023-10-09T08:55:15;8.73;;;4.63;;
83094;SDS011;72967;43.674;6.976;2023-10-09T08:57:42;11.60;;;4.43;;
83094;SDS011;72967;43.674;6.976;2023-10-09T09:00:20;10.57;;;4.38;;
83094;SDS011;72967;43.674;6.976;2023-10-09T09:02:49;8.90;;;4.38;;
83094;SDS011;72967;43.674;6.976;2023-10-09T09:05:22;8.70;;;4.28;;
83094;SDS011;72967;43.674;6.976;2023-10-09T09:07:49;9.35;;;4.47;;
83094;SDS011;72967;43.674;6.976;2023-10-09T09:10:14;7.13;;;4.03;;
83094;SDS011;72967;43.674;6.976;2023-10-09T09:12:43;8.85;;;5.00;;
83094;SDS011;72967;43.674;6.976;2023-10-09T09:15:16;7.97;;;4.63;;
83094;SDS011;72967;43.674;6.976;2023-10-09T09:17:45;9.38;;;4.95;;
83094;SDS011;72967;43.674;6.976;2023-10-09T09:20:23;8.65;;;4.70;;
83094;SDS011;72967;43.674;6.976;2023-10-09T09:22:55;8.23;;;4.60;;
83094;SDS011;72967;43.674;6.976;2023-10-09T09:25:21;10.48;;;4.57;;
83094;SDS011;72967;43.674;6.976;2023-10-09T09:27:49;9.38;;;5.35;;
83094;SDS011;72967;43.674;6.976;2023-10-09T09:30:23;8.95;;;4.47;;
83094;SDS011;72967;43.674;6.976;2023-10-09T09:32:49;11.60;;;4.80;;
83094;SDS011;72967;43.674;6.976;2023-10-09T09:35:35;6.88;;;4.57;;
83094;SDS011;72967;43.674;6.976;2023-10-09T09:38:00;8.85;;;4.90;;
83094;SDS011;72967;43.674;6.976;2023-10-09T09:40:29;7.60;;;4.70;;
83094;SDS011;72967;43.674;6.976;2023-10-09T09:42:58;9.43;;;5.47;;
83094;SDS011;72967;43.674;6.976;2023-10-09T09:45:35;11.18;;;4.78;;
83094;SDS011;72967;43.674;6.976;2023-10-09T09:48:04;9.30;;;4.75;;
83094;SDS011;72967;43.674;6.976;2023-10-09T09:50:34;9.48;;;4.75;;
83094;SDS011;72967;43.674;6.976;2023-10-09T09:53:08;7.93;;;5.07;;
83094;SDS011;72967;43.674;6.976;2023-10-09T09:55:41;6.57;;;5.00;;
83094;SDS011;72967;43.674;6.976;2023-10-09T10:00:45;8.32;;;5.10;;
83094;SDS011;72967;43.674;6.976;2023-10-09T10:03:26;7.75;;;4.47;;
83094;SDS011;72967;43.674;6.976;2023-10-09T10:05:58;9.52;;;5.35;;
83094;SDS011;72967;43.674;6.976;2023-10-09T10:08:29;10.60;;;5.32;;
83094;SDS011;72967;43.674;6.976;2023-10-09T10:10:58;11.15;;;5.63;;
83094;SDS011;72967;43.674;6.976;2023-10-09T10:14:03;10.25;;;4.82;;
83094;SDS011;72967;43.674;6.976;2023-10-09T10:16:24;9.93;;;4.80;;
83094;SDS011;72967;43.674;6.976;2023-10-09T10:19:00;8.13;;;4.78;;
83094;SDS011;72967;43.674;6.976;2023-10-09T10:21:46;8.30;;;5.00;;
83094;SDS011;72967;43.674;6.976;2023-10-09T10:25:00;8.70;;;5.60;;
83094;SDS011;72967;43.674;6.976;2023-10-09T10:27:23;7.85;;;5.03;;
83094;SDS011;72967;43.674;6.976;2023-10-09T10:32:53;9.48;;;5.10;;
83094;SDS011;72967;43.674;6.976;2023-10-09T10:35:23;8.05;;;4.85;;
83094;SDS011;72967;43.674;6.976;2023-10-09T10:38:22;12.32;;;5.90;;
83094;SDS011;72967;43.674;6.976;2023-10-09T10:40:47;9.10;;;5.28;;
83094;SDS011;72967;43.674;6.976;2023-10-09T10:43:22;8.90;;;5.10;;
83094;SDS011;72967;43.674;6.976;2023-10-09T10:46:04;9.85;;;5.35;;
83094;SDS011;72967;43.674;6.976;2023-10-09T10:48:38;11.02;;;5.18;;
83094;SDS011;72967;43.674;6.976;2023-10-09T10:51:05;10.23;;;4.88;;
83094;SDS011;72967;43.674;6.976;2023-10-09T10:53:30;11.10;;;5.50;;
83094;SDS011;72967;43.674;6.976;2023-10-09T10:56:13;12.63;;;4.80;;
83094;SDS011;72967;43.674;6.976;2023-10-09T10:58:39;10.93;;;5.78;;
83094;SDS011;72967;43.674;6.976;2023-10-09T11:01:20;8.30;;;5.15;;
83094;SDS011;72967;43.674;6.976;2023-10-09T11:03:50;9.32;;;5.47;;
83094;SDS011;72967;43.674;6.976;2023-10-09T11:06:28;11.88;;;6.03;;
83094;SDS011;72967;43.674;6.976;2023-10-09T11:09:01;10.50;;;5.70;;
83094;SDS011;72967;43.674;6.976;2023-10-09T11:11:45;10.90;;;4.82;;
83094;SDS011;72967;43.674;6.976;2023-10-09T11:14:12;9.32;;;5.75;;
83094;SDS011;72967;43.674;6.976;2023-10-09T11:16:42;9.90;;;5.35;;
83094;SDS011;72967;43.674;6.976;2023-10-09T11:19:08;8.80;;;5.28;;
83094;SDS011;72967;43.674;6.976;2023-10-09T11:21:52;9.23;;;4.75;;
83094;SDS011;72967;43.674;6.976;2023-10-09T11:24:27;9.38;;;4.95;;
83094;SDS011;72967;43.674;6.976;2023-10-09T11:26:58;8.88;;;5.20;;
83094;SDS011;72967;43.674;6.976;2023-10-09T11:29:30;9.35;;;5.47;;
83094;SDS011;72967;43.674;6.976;2023-10-09T11:32:08;9.32;;;5.88;;
83094;SDS011;72967;43.674;6.976;2023-10-09T11:34:47;8.30;;;4.80;;
83094;SDS011;72967;43.674;6.976;2023-10-09T11:37:17;9.55;;;5.38;;
83094;SDS011;72967;43.674;6.976;2023-10-09T11:39:54;7.72;;;5.05;;
83094;SDS011;72967;43.674;6.976;2023-10-09T11:42:21;9.35;;;6.30;;
83094;SDS011;72967;43.674;6.976;2023-10-09T11:45:03;9.55;;;5.55;;
83094;SDS011;72967;43.674;6.976;2023-10-09T11:47:52;7.97;;;5.00;;
83094;SDS011;72967;43.674;6.976;2023-10-09T11:53:16;9.15;;;5.32;;
83094;SDS011;72967;43.674;6.976;2023-10-09T11:58:24;7.60;;;4.82;;
83094;SDS011;72967;43.674;6.976;2023-10-09T12:00:52;10.25;;;5.38;;
83094;SDS011;72967;43.674;6.976;2023-10-09T12:03:28;9.13;;;5.40;;
83094;SDS011;72967;43.674;6.976;2023-10-09T12:05:55;9.60;;;5.20;;
83094;SDS011;72967;43.674;6.976;2023-10-09T12:08:37;10.63;;;5.30;;
83094;SDS011;72967;43.674;6.976;2023-10-09T12:11:05;8.07;;;5.45;;
83094;SDS011;72967;43.674;6.976;2023-10-09T12:13:34;8.85;;;5.28;;
83094;SDS011;72967;43.674;6.976;2023-10-09T12:15:59;10.02;;;4.95;;
83094;SDS011;72967;43.674;6.976;2023-10-09T12:18:25;9.75;;;5.47;;
83094;SDS011;72967;43.674;6.976;2023-10-09T12:20:50;11.32;;;5.72;;
83094;SDS011;72967;43.674;6.976;2023-10-09T12:23:17;12.45;;;5.60;;
83094;SDS011;72967;43.674;6.976;2023-10-09T12:25:44;13.88;;;6.03;;
83094;SDS011;72967;43.674;6.976;2023-10-09T12:28:10;8.95;;;5.68;;
83094;SDS011;72967;43.674;6.976;2023-10-09T12:30:39;9.75;;;5.78;;
83094;SDS011;72967;43.674;6.976;2023-10-09T12:33:05;10.15;;;5.85;;
83094;SDS011;72967;43.674;6.976;2023-10-09T12:35:35;9.23;;;5.72;;
83094;SDS011;72967;43.674;6.976;2023-10-09T12:38:05;9.27;;;6.10;;
83094;SDS011;72967;43.674;6.976;2023-10-09T12:40:34;7.93;;;5.10;;
83094;SDS011;72967;43.674;6.976;2023-10-09T12:43:00;10.77;;;6.07;;
83094;SDS011;72967;43.674;6.976;2023-10-09T12:45:26;9.73;;;6.07;;
83094;SDS011;72967;43.674;6.976;2023-10-09T12:47:55;8.02;;;5.43;;
83094;SDS011;72967;43.674;6.976;2023-10-09T12:50:24;8.98;;;5.45;;
83094;SDS011;72967;43.674;6.976;2023-10-09T12:52:54;8.65;;;5.50;;
83094;SDS011;72967;43.674;6.976;2023-10-09T12:55:35;10.30;;;5.57;;
83094;SDS011;72967;43.674;6.976;2023-10-09T12:58:05;11.23;;;5.75;;
83094;SDS011;72967;43.674;6.976;2023-10-09T13:00:36;8.85;;;5.65;;
83094;SDS011;72967;43.674;6.976;2023-10-09T13:03:06;10.35;;;5.72;;
83094;SDS011;72967;43.674;6.976;2023-10-09T13:08:21;9.93;;;5.90;;
83094;SDS011;72967;43.674;6.976;2023-10-09T13:10:51;9.15;;;5.57;;
83094;SDS011;72967;43.674;6.976;2023-10-09T13:13:26;13.88;;;6.45;;
83094;SDS011;72967;43.674;6.976;2023-10-09T13:16:05;9.27;;;5.50;;
83094;SDS011;72967;43.674;6.976;2023-10-09T13:18:53;10.32;;;5.85;;
83094;SDS011;72967;43.674;6.976;2023-10-09T13:21:27;12.32;;;5.95;;
83094;SDS011;72967;43.674;6.976;2023-10-09T13:24:02;9.55;;;5.38;;
83094;SDS011;72967;43.674;6.976;2023-10-09T13:26:28;9.45;;;5.63;;
83094;SDS011;72967;43.674;6.976;2023-10-09T13:28:58;9.07;;;5.65;;
83094;SDS011;72967;43.674;6.976;2023-10-09T13:31:27;10.18;;;5.88;;
83094;SDS011;72967;43.674;6.976;2023-10-09T13:33:53;10.18;;;5.88;;
83094;SDS011;72967;43.674;6.976;2023-10-09T13:36:20;9.80;;;6.55;;
83094;SDS011;72967;43.674;6.976;2023-10-09T13:38:53;11.05;;;6.20;;
83094;SDS011;72967;43.674;6.976;2023-10-09T13:41:19;9.68;;;6.85;;
83094;SDS011;72967;43.674;6.976;2023-10-09T13:43:44;9.98;;;6.22;;
83094;SDS011;72967;43.674;6.976;2023-10-09T13:46:10;11.38;;;6.35;;
83094;SDS011;72967;43.674;6.976;2023-10-09T13:48:37;9.95;;;6.03;;
83094;SDS011;72967;43.674;6.976;2023-10-09T13:51:06;8.23;;;5.45;;
83094;SDS011;72967;43.674;6.976;2023-10-09T13:53:34;8.00;;;5.82;;
83094;SDS011;72967;43.674;6.976;2023-10-09T13:56:16;8.85;;;6.18;;
83094;SDS011;72967;43.674;6.976;2023-10-09T14:01:20;8.93;;;5.65;;
83094;SDS011;72967;43.674;6.976;2023-10-09T14:03:58;11.40;;;6.15;;
83094;SDS011;72967;43.674;6.976;2023-10-09T14:06:25;11.25;;;5.93;;
83094;SDS011;72967;43.674;6.976;2023-10-09T14:08:58;7.95;;;5.60;;
83094;SDS011;72967;43.674;6.976;2023-10-09T14:11:29;7.68;;;5.28;;
83094;SDS011;72967;43.674;6.976;2023-10-09T14:13:56;9.57;;;5.68;;
83094;SDS011;72967;43.674;6.976;2023-10-09T14:16:21;10.15;;;6.13;;
83094;SDS011;72967;43.674;6.976;2023-10-09T14:18:50;8.77;;;6.25;;
83094;SDS011;72967;43.674;6.976;2023-10-09T14:21:19;9.27;;;5.97;;
83094;SDS011;72967;43.674;6.976;2023-10-09T14:23:45;9.82;;;6.00;;
83094;SDS011;72967;43.674;6.976;2023-10-09T14:26:13;13.13;;;6.32;;
83094;SDS011;72967;43.674;6.976;2023-10-09T14:28:39;9.75;;;5.55;;
83094;SDS011;72967;43.674;6.976;2023-10-09T14:31:04;11.52;;;6.68;;
83094;SDS011;72967;43.674;6.976;2023-10-09T14:33:36;14.13;;;6.20;;
83094;SDS011;72967;43.674;6.976;2023-10-09T14:36:02;9.20;;;6.38;;
83094;SDS011;72967;43.674;6.976;2023-10-09T14:38:30;10.65;;;6.30;;
83094;SDS011;72967;43.674;6.976;2023-10-09T14:40:58;9.93;;;7.28;;
83094;SDS011;72967;43.674;6.976;2023-10-09T14:43:25;8.60;;;6.78;;
83094;SDS011;72967;43.674;6.976;2023-10-09T14:45:58;8.77;;;6.10;;
83094;SDS011;72967;43.674;6.976;2023-10-09T14:48:23;15.77;;;7.75;;
83094;SDS011;72967;43.674;6.976;2023-10-09T14:50:52;10.75;;;6.38;;
83094;SDS011;72967;43.674;6.976;2023-10-09T14:53:18;12.25;;;7.43;;
83094;SDS011;72967;43.674;6.976;2023-10-09T14:55:58;10.55;;;6.65;;
83094;SDS011;72967;43.674;6.976;2023-10-09T14:58:28;8.48;;;6.30;;
83094;SDS011;72967;43.674;6.976;2023-10-09T15:00:56;8.80;;;6.30;;
83094;SDS011;72967;43.674;6.976;2023-10-09T15:03:22;13.65;;;7.10;;
83094;SDS011;72967;43.674;6.976;2023-10-09T15:05:48;9.32;;;6.90;;
83094;SDS011;72967;43.674;6.976;2023-10-09T15:08:14;10.55;;;6.38;;
83094;SDS011;72967;43.674;6.976;2023-10-09T15:13:10;10.48;;;7.32;;
83094;SDS011;72967;43.674;6.976;2023-10-09T15:15:41;11.50;;;6.82;;
83094;SDS011;72967;43.674;6.976;2023-10-09T15:18:06;10.88;;;6.95;;
83094;SDS011;72967;43.674;6.976;2023-10-09T15:20:34;12.00;;;7.35;;
83094;SDS011;72967;43.674;6.976;2023-10-09T15:22:59;12.20;;;6.20;;
83094;SDS011;72967;43.674;6.976;2023-10-09T15:25:26;12.05;;;7.53;;
83094;SDS011;72967;43.674;6.976;2023-10-09T15:27:51;13.05;;;6.70;;
83094;SDS011;72967;43.674;6.976;2023-10-09T15:30:17;9.23;;;6.43;;
83094;SDS011;72967;43.674;6.976;2023-10-09T15:32:42;8.68;;;5.95;;
83094;SDS011;72967;43.674;6.976;2023-10-09T15:35:09;10.02;;;6.35;;
83094;SDS011;72967;43.674;6.976;2023-10-09T15:37:43;13.13;;;6.55;;
83094;SDS011;72967;43.674;6.976;2023-10-09T15:40:09;9.05;;;6.97;;
83094;SDS011;72967;43.674;6.976;2023-10-09T15:42:44;12.63;;;6.57;;
83094;SDS011;72967;43.674;6.976;2023-10-09T15:45:14;8.20;;;6.75;;
83094;SDS011;72967;43.674;6.976;2023-10-09T15:47:40;11.85;;;7.30;;
83094;SDS011;72967;43.674;6.976;2023-10-09T15:50:06;11.48;;;7.55;;